createdAt,value
2018-02-22T00:00:49.151Z,30.73
2018-02-22T00:01:38.193Z,26.50
2018-02-22T00:02:27.248Z,27.52
2018-02-22T00:03:16.322Z,29.58
2018-02-22T00:04:05.377Z,27.55
2018-02-22T00:04:54.449Z,21.55
2018-02-22T00:05:43.503Z,18.50
2018-02-22T00:06:32.567Z,17.67
2018-02-22T00:07:21.597Z,17.75
2018-02-22T00:08:10.643Z,11.00
2018-02-22T00:08:59.674Z,14.45
2018-02-22T00:09:48.720Z,12.55
2018-02-22T00:10:37.831Z,13.98
2018-02-22T00:11:26.880Z,11.60
2018-02-22T00:12:15.942Z,11.43
2018-02-22T00:13:05.017Z,13.18
2018-02-22T00:13:54.054Z,12.73
2018-02-22T00:14:43.092Z,12.63
2018-02-22T00:15:32.160Z,11.05
2018-02-22T00:16:21.395Z,13.05
2018-02-22T00:17:10.433Z,15.15
2018-02-22T00:17:59.489Z,15.60
2018-02-22T00:18:48.538Z,16.17
2018-02-22T00:19:37.589Z,13.48
2018-02-22T00:20:26.626Z,14.40
2018-02-22T00:21:15.677Z,17.27
2018-02-22T00:22:04.750Z,17.00
2018-02-22T00:22:53.839Z,14.55
2018-02-22T00:23:42.890Z,16.48
2018-02-22T00:24:31.936Z,16.85
2018-02-22T00:25:20.985Z,15.48
2018-02-22T00:26:10.040Z,21.08
2018-02-22T00:26:59.110Z,21.87
2018-02-22T00:27:48.402Z,18.62
2018-02-22T00:28:37.600Z,18.62
2018-02-22T00:29:26.648Z,17.90
2018-02-22T00:30:15.695Z,18.27
2018-02-22T00:31:04.783Z,18.75
2018-02-22T00:31:53.956Z,15.40
2018-02-22T00:32:42.974Z,16.90
2018-02-22T00:33:32.311Z,15.82
2018-02-22T00:34:22.982Z,14.80
2018-02-22T00:35:12.033Z,13.85
2018-02-22T00:36:01.085Z,13.98
2018-02-22T00:36:50.131Z,13.38
2018-02-22T00:37:39.182Z,13.15
2018-02-22T00:38:28.222Z,14.02
2018-02-22T00:39:17.314Z,14.68
2018-02-22T00:40:06.346Z,15.18
2018-02-22T00:40:55.430Z,17.25
2018-02-22T00:41:44.480Z,18.02
2018-02-22T00:42:33.547Z,17.12
2018-02-22T00:43:22.600Z,13.13
2018-02-22T00:44:11.884Z,10.80
2018-02-22T00:45:00.925Z,12.63
2018-02-22T00:45:49.982Z,12.13
2018-02-22T00:46:39.059Z,14.93
2018-02-22T00:47:28.105Z,14.52
2018-02-22T00:48:17.166Z,13.07
2018-02-22T00:49:06.211Z,15.45
2018-02-22T00:49:55.287Z,15.52
2018-02-22T00:50:44.332Z,16.35
2018-02-22T00:51:33.389Z,18.95
2018-02-22T00:52:22.538Z,21.67
2018-02-22T00:53:11.584Z,18.37
2018-02-22T00:54:00.626Z,18.12
2018-02-22T00:54:49.673Z,18.30
2018-02-22T00:55:38.733Z,16.50
2018-02-22T00:56:27.784Z,16.58
2018-02-22T00:57:16.858Z,13.80
2018-02-22T00:58:05.943Z,13.10
2018-02-22T00:58:55.007Z,12.35
2018-02-22T00:59:44.039Z,13.18
2018-02-22T01:00:33.081Z,13.43
2018-02-22T01:01:22.110Z,13.30
2018-02-22T01:02:11.166Z,13.02
2018-02-22T01:03:00.210Z,14.00
2018-02-22T01:03:49.324Z,21.87
2018-02-22T01:04:38.380Z,25.20
2018-02-22T01:05:27.427Z,23.60
2018-02-22T01:06:16.480Z,23.55
2018-02-22T01:07:05.538Z,24.30
2018-02-22T01:07:54.582Z,25.15
2018-02-22T01:08:43.657Z,23.90
2018-02-22T01:09:32.825Z,22.95
2018-02-22T01:10:21.881Z,23.00
2018-02-22T01:11:10.948Z,21.42
2018-02-22T01:11:59.995Z,18.48
2018-02-22T01:12:49.044Z,19.52
2018-02-22T01:13:38.097Z,18.75
2018-02-22T01:14:27.148Z,19.20
2018-02-22T01:15:16.280Z,19.30
2018-02-22T01:16:05.332Z,20.50
2018-02-22T01:16:54.376Z,17.35
2018-02-22T01:17:43.411Z,16.60
2018-02-22T01:18:32.467Z,15.20
2018-02-22T01:19:21.526Z,17.45
2018-02-22T01:20:10.571Z,17.35
2018-02-22T01:21:00.125Z,19.55
2018-02-22T01:21:49.162Z,18.23
2018-02-22T01:22:38.219Z,18.12
2018-02-22T01:23:27.284Z,17.42
2018-02-22T01:24:16.347Z,16.08
2018-02-22T01:25:05.404Z,17.10
2018-02-22T01:25:54.442Z,13.52
2018-02-22T01:26:43.590Z,26.12
2018-02-22T01:27:32.652Z,21.08
2018-02-22T01:28:21.690Z,22.42
2018-02-22T01:29:10.746Z,27.35
2018-02-22T01:29:59.797Z,25.42
2018-02-22T01:30:48.839Z,25.35
2018-02-22T01:31:37.887Z,24.58
2018-02-22T01:32:26.995Z,23.17
2018-02-22T01:33:16.052Z,13.57
2018-02-22T01:34:05.086Z,14.10
2018-02-22T01:34:55.887Z,14.02
2018-02-22T01:35:44.926Z,16.75
2018-02-22T01:36:33.969Z,17.70
2018-02-22T01:37:23.034Z,16.58
2018-02-22T01:38:12.112Z,17.75
2018-02-22T01:39:01.156Z,15.38
2018-02-22T01:39:50.208Z,15.52
2018-02-22T01:40:39.285Z,14.87
2018-02-22T01:41:28.337Z,16.08
2018-02-22T01:42:17.384Z,14.82
2018-02-22T01:43:06.420Z,28.23
2018-02-22T01:43:55.713Z,19.02
2018-02-22T01:44:44.764Z,18.02
2018-02-22T01:45:33.823Z,17.08
2018-02-22T01:46:22.875Z,16.02
2018-02-22T01:47:11.911Z,16.60
2018-02-22T01:48:00.946Z,16.40
2018-02-22T01:48:49.990Z,16.48
2018-02-22T01:49:39.145Z,15.88
2018-02-22T01:50:28.194Z,15.13
2018-02-22T01:51:17.246Z,13.95
2018-02-22T01:52:06.291Z,14.40
2018-02-22T01:52:55.338Z,14.82
2018-02-22T01:53:44.391Z,13.70
2018-02-22T01:54:33.436Z,14.18
2018-02-22T01:55:22.531Z,14.80
2018-02-22T01:56:11.580Z,14.73
2018-02-22T01:57:00.637Z,16.62
2018-02-22T01:57:49.673Z,15.60
2018-02-22T01:58:38.712Z,16.73
2018-02-22T01:59:27.772Z,16.15
2018-02-22T02:00:16.831Z,15.93
2018-02-22T02:01:06.111Z,17.33
2018-02-22T02:01:55.167Z,16.10
2018-02-22T02:02:44.214Z,16.17
2018-02-22T02:03:33.256Z,15.30
2018-02-22T02:04:22.319Z,16.37
2018-02-22T02:05:11.495Z,16.70
2018-02-22T02:06:00.549Z,18.08
2018-02-22T02:06:49.600Z,18.77
2018-02-22T02:07:38.639Z,20.75
2018-02-22T02:08:27.678Z,16.90
2018-02-22T02:09:16.719Z,17.70
2018-02-22T02:10:05.764Z,14.73
2018-02-22T02:10:54.893Z,16.40
2018-02-22T02:11:43.931Z,16.15
2018-02-22T02:12:32.963Z,18.17
2018-02-22T02:13:22.001Z,18.77
2018-02-22T02:14:11.072Z,18.27
2018-02-22T02:15:00.132Z,18.15
2018-02-22T02:15:49.218Z,17.75
2018-02-22T02:16:38.255Z,17.12
2018-02-22T02:17:27.304Z,18.65
2018-02-22T02:18:16.371Z,14.60
2018-02-22T02:19:05.406Z,14.60
2018-02-22T02:19:54.434Z,14.45
2018-02-22T02:20:43.544Z,15.57
2018-02-22T02:21:33.125Z,14.40
2018-02-22T02:22:22.193Z,14.43
2018-02-22T02:23:11.246Z,15.02
2018-02-22T02:24:00.291Z,18.15
2018-02-22T02:24:49.328Z,20.17
2018-02-22T02:25:38.381Z,22.45
2018-02-22T02:26:27.429Z,23.38
2018-02-22T02:27:16.604Z,21.58
2018-02-22T02:28:08.528Z,24.52
2018-02-22T02:28:57.587Z,22.48
2018-02-22T02:29:46.627Z,22.52
2018-02-22T02:30:35.673Z,22.80
2018-02-22T02:31:25.030Z,21.48
2018-02-22T02:32:14.076Z,22.02
2018-02-22T02:33:03.185Z,22.00
2018-02-22T02:33:52.236Z,19.02
2018-02-22T02:34:41.312Z,19.87
2018-02-22T02:35:30.384Z,18.25
2018-02-22T02:36:19.452Z,15.43
2018-02-22T02:37:08.490Z,13.65
2018-02-22T02:37:57.535Z,12.93
2018-02-22T02:38:46.869Z,12.50
2018-02-22T02:39:35.917Z,12.05
2018-02-22T02:40:24.961Z,14.75
2018-02-22T02:41:14.066Z,10.95
2018-02-22T02:42:03.128Z,10.82
2018-02-22T02:42:52.159Z,11.70
2018-02-22T02:43:41.199Z,10.93
2018-02-22T02:44:30.261Z,12.88
2018-02-22T02:45:19.319Z,12.73
2018-02-22T02:46:08.381Z,11.10
2018-02-22T02:46:57.520Z,10.18
2018-02-22T02:47:46.565Z,10.73
2018-02-22T02:48:35.627Z,13.48
2018-02-22T02:49:24.696Z,15.73
2018-02-22T02:50:13.730Z,13.10
2018-02-22T02:51:02.781Z,12.73
2018-02-22T02:51:51.828Z,12.57
2018-02-22T02:52:40.914Z,12.77
2018-02-22T02:53:29.971Z,12.27
2018-02-22T02:54:19.030Z,11.77
2018-02-22T02:55:08.111Z,11.07
2018-02-22T02:55:57.164Z,14.50
2018-02-22T02:56:46.235Z,11.25
2018-02-22T02:57:35.444Z,10.48
2018-02-22T02:58:24.708Z,11.23
2018-02-22T02:59:13.762Z,11.65
2018-02-22T03:00:02.810Z,11.63
2018-02-22T03:00:51.957Z,12.60
2018-02-22T03:01:40.996Z,12.07
2018-02-22T03:02:30.130Z,12.32
2018-02-22T03:03:19.196Z,12.65
2018-02-22T03:04:08.244Z,12.65
2018-02-22T03:04:57.315Z,11.80
2018-02-22T03:05:46.390Z,14.87
2018-02-22T03:06:35.433Z,14.55
2018-02-22T03:07:24.494Z,15.93
2018-02-22T03:08:13.581Z,17.67
2018-02-22T03:09:02.623Z,17.85
2018-02-22T03:09:51.679Z,19.67
2018-02-22T03:10:40.726Z,22.95
2018-02-22T03:11:29.779Z,20.23
2018-02-22T03:12:18.822Z,25.05
2018-02-22T03:13:07.864Z,23.48
2018-02-22T03:13:57.135Z,20.60
2018-02-22T03:14:46.180Z,15.98
2018-02-22T03:15:35.220Z,18.48
2018-02-22T03:16:24.296Z,18.23
2018-02-22T03:17:13.338Z,17.30
2018-02-22T03:18:02.394Z,17.08
2018-02-22T03:18:51.445Z,18.50
2018-02-22T03:19:40.555Z,18.52
2018-02-22T03:20:29.613Z,18.42
2018-02-22T03:21:18.664Z,17.30
2018-02-22T03:22:07.717Z,20.17
2018-02-22T03:22:56.774Z,23.48
2018-02-22T03:23:45.857Z,32.00
2018-02-22T03:24:34.892Z,25.58
2018-02-22T03:25:23.984Z,25.90
2018-02-22T03:26:13.035Z,23.80
2018-02-22T03:27:02.078Z,22.98
2018-02-22T03:27:51.126Z,27.62
2018-02-22T03:28:42.830Z,22.92
2018-02-22T03:29:32.088Z,19.77
2018-02-22T03:30:21.142Z,20.05
2018-02-22T03:31:10.207Z,17.65
2018-02-22T03:31:59.300Z,19.60
2018-02-22T03:32:48.325Z,19.87
2018-02-22T03:33:37.384Z,18.33
2018-02-22T03:34:26.481Z,19.90
2018-02-22T03:35:15.528Z,18.45
2018-02-22T03:36:04.593Z,17.87
2018-02-22T03:36:53.641Z,17.45
2018-02-22T03:37:42.736Z,18.55
2018-02-22T03:38:31.876Z,19.40
2018-02-22T03:39:20.929Z,19.08
2018-02-22T03:40:09.971Z,20.98
2018-02-22T03:40:59.044Z,22.45
2018-02-22T03:41:48.083Z,24.30
2018-02-22T03:42:37.119Z,22.67
2018-02-22T03:43:26.168Z,20.37
2018-02-22T03:44:15.263Z,25.40
2018-02-22T03:45:04.314Z,27.45
2018-02-22T03:45:53.364Z,27.92
2018-02-22T03:46:42.781Z,28.15
2018-02-22T03:47:31.829Z,29.30
2018-02-22T03:48:20.861Z,27.20
2018-02-22T03:49:09.907Z,30.00
2018-02-22T03:49:58.956Z,31.17
2018-02-22T03:50:48.010Z,30.08
2018-02-22T03:51:37.084Z,27.80
2018-02-22T03:52:26.134Z,30.02
2018-02-22T03:53:15.187Z,28.45
2018-02-22T03:54:04.214Z,30.35
2018-02-22T03:54:53.263Z,29.20
2018-02-22T03:55:42.310Z,21.70
2018-02-22T03:56:31.351Z,23.42
2018-02-22T03:57:20.573Z,21.73
2018-02-22T03:58:09.630Z,22.10
2018-02-22T03:58:58.670Z,22.00
2018-02-22T03:59:47.713Z,21.95
2018-02-22T04:00:36.776Z,22.40
2018-02-22T04:01:25.813Z,23.15
2018-02-22T04:02:14.862Z,22.73
2018-02-22T04:03:03.935Z,22.83
2018-02-22T04:03:52.998Z,24.20
2018-02-22T04:04:42.076Z,26.20
2018-02-22T04:05:31.330Z,29.05
2018-02-22T04:06:20.380Z,29.17
2018-02-22T04:07:09.428Z,29.55
2018-02-22T04:07:58.710Z,29.05
2018-02-22T04:08:48.001Z,29.60
2018-02-22T04:09:37.056Z,37.53
2018-02-22T04:10:26.102Z,32.55
2018-02-22T04:11:15.143Z,35.28
2018-02-22T04:12:04.209Z,20.85
2018-02-22T04:12:53.245Z,25.75
2018-02-22T04:13:42.353Z,26.67
2018-02-22T04:14:31.451Z,25.15
2018-02-22T04:15:20.483Z,23.50
2018-02-22T04:16:09.526Z,21.73
2018-02-22T04:16:58.609Z,16.75
2018-02-22T04:17:47.646Z,16.17
2018-02-22T04:18:36.688Z,16.67
2018-02-22T04:19:25.761Z,15.50
2018-02-22T04:20:14.829Z,15.77
2018-02-22T04:21:06.250Z,14.05
2018-02-22T04:21:55.477Z,13.62
2018-02-22T04:22:44.514Z,15.25
2018-02-22T04:23:33.554Z,13.43
2018-02-22T04:24:22.606Z,12.93
2018-02-22T04:25:11.649Z,13.98
2018-02-22T04:26:00.696Z,13.45
2018-02-22T04:26:49.736Z,12.63
2018-02-22T04:27:38.835Z,13.70
2018-02-22T04:28:27.871Z,13.35
2018-02-22T04:29:17.273Z,12.52
2018-02-22T04:30:06.344Z,12.82
2018-02-22T04:30:55.392Z,14.50
2018-02-22T04:31:44.436Z,13.82
2018-02-22T04:32:33.491Z,15.65
2018-02-22T04:33:22.764Z,14.70
2018-02-22T04:34:11.812Z,14.18
2018-02-22T04:35:00.866Z,18.73
2018-02-22T04:35:49.916Z,17.35
2018-02-22T04:36:38.975Z,16.80
2018-02-22T04:37:28.113Z,19.00
2018-02-22T04:38:17.169Z,19.87
2018-02-22T04:39:06.222Z,24.95
2018-02-22T04:39:55.263Z,41.75
2018-02-22T04:40:44.312Z,68.82
2018-02-22T04:41:33.384Z,58.22
2018-02-22T04:42:22.450Z,60.05
2018-02-22T04:43:11.554Z,63.72
2018-02-22T04:44:00.603Z,60.28
2018-02-22T04:44:49.646Z,60.75
2018-02-22T04:45:38.690Z,55.10
2018-02-22T04:46:27.726Z,51.72
2018-02-22T04:47:16.779Z,38.72
2018-02-22T04:48:05.865Z,53.87
2018-02-22T04:48:54.922Z,54.80
2018-02-22T04:49:43.959Z,35.63
2018-02-22T04:50:33.009Z,39.75
2018-02-22T04:51:22.061Z,48.67
2018-02-22T04:52:11.117Z,38.03
2018-02-22T04:53:00.173Z,33.42
2018-02-22T04:53:49.440Z,34.05
2018-02-22T04:54:38.500Z,33.78
2018-02-22T04:55:27.552Z,25.88
2018-02-22T04:56:16.695Z,28.05
2018-02-22T04:57:05.740Z,28.95
2018-02-22T04:57:54.797Z,26.85
2018-02-22T04:58:43.858Z,27.15
2018-02-22T04:59:32.906Z,29.42
2018-02-22T05:00:21.956Z,28.55
2018-02-22T05:01:11.036Z,39.50
2018-02-22T05:02:03.179Z,56.17
2018-02-22T05:02:52.214Z,53.95
2018-02-22T05:03:41.304Z,46.37
2018-02-22T05:04:30.343Z,41.33
2018-02-22T05:05:19.396Z,45.58
2018-02-22T05:06:08.445Z,42.58
2018-02-22T05:06:57.505Z,47.33
2018-02-22T05:07:46.557Z,51.42
2018-02-22T05:08:35.608Z,43.72
2018-02-22T05:09:24.966Z,24.80
2018-02-22T05:10:14.002Z,30.48
2018-02-22T05:11:03.048Z,29.30
2018-02-22T05:11:52.096Z,25.00
2018-02-22T05:12:41.147Z,27.23
2018-02-22T05:13:30.238Z,25.40
2018-02-22T05:14:19.293Z,23.55
2018-02-22T05:15:08.349Z,25.45
2018-02-22T05:15:57.385Z,25.17
2018-02-22T05:16:46.456Z,25.60
2018-02-22T05:17:35.498Z,27.05
2018-02-22T05:18:24.544Z,23.55
2018-02-22T05:19:13.594Z,24.92
2018-02-22T05:20:02.639Z,24.95
2018-02-22T05:20:51.694Z,24.37
2018-02-22T05:21:40.742Z,23.35
2018-02-22T05:22:29.901Z,22.62
2018-02-22T05:23:18.960Z,22.08
2018-02-22T05:24:08.014Z,21.23
2018-02-22T05:24:57.075Z,25.48
2018-02-22T05:25:46.130Z,21.52
2018-02-22T05:26:35.173Z,19.45
2018-02-22T05:27:24.226Z,20.62
2018-02-22T05:28:13.660Z,18.12
2018-02-22T05:29:02.722Z,22.70
2018-02-22T05:29:51.804Z,24.87
2018-02-22T05:30:40.860Z,25.08
2018-02-22T05:31:29.898Z,28.10
2018-02-22T05:32:18.928Z,28.92
2018-02-22T05:33:07.998Z,33.08
2018-02-22T05:33:57.066Z,36.47
2018-02-22T05:34:46.115Z,38.22
2018-02-22T05:35:35.268Z,41.75
2018-02-22T05:36:24.320Z,33.33
2018-02-22T05:37:13.369Z,22.55
2018-02-22T05:38:02.420Z,28.30
2018-02-22T05:38:51.472Z,32.97
2018-02-22T05:39:40.526Z,32.22
2018-02-22T05:40:29.619Z,32.15
2018-02-22T05:41:18.770Z,39.50
2018-02-22T05:42:08.002Z,36.17
2018-02-22T05:42:57.054Z,33.90
2018-02-22T05:43:46.113Z,39.78
2018-02-22T05:44:35.230Z,37.53
2018-02-22T05:45:24.317Z,42.28
2018-02-22T05:46:13.373Z,44.22
2018-02-22T05:47:02.658Z,45.30
2018-02-22T05:47:51.737Z,48.05
2018-02-22T05:48:40.773Z,48.63
2018-02-22T05:49:29.806Z,45.95
2018-02-22T05:50:18.839Z,42.22
2018-02-22T05:51:07.870Z,41.25
2018-02-22T05:51:56.931Z,38.42
2018-02-22T05:52:46.005Z,42.45
2018-02-22T05:53:35.135Z,45.55
2018-02-22T05:54:24.184Z,56.63
2018-02-22T05:55:13.234Z,52.83
2018-02-22T05:56:02.277Z,52.53
2018-02-22T05:56:51.344Z,57.38
2018-02-22T05:57:40.510Z,57.05
2018-02-22T05:58:29.592Z,68.22
2018-02-22T05:59:18.642Z,60.28
2018-02-22T06:00:08.561Z,60.38
2018-02-22T06:00:57.966Z,58.80
2018-02-22T06:01:47.051Z,55.80
2018-02-22T06:02:36.143Z,49.53
2018-02-22T06:03:25.410Z,60.45
2018-02-22T06:04:14.472Z,55.63
2018-02-22T06:05:03.515Z,52.33
2018-02-22T06:05:52.554Z,46.45
2018-02-22T06:06:41.710Z,60.05
2018-02-22T06:07:30.758Z,71.93
2018-02-22T06:08:19.865Z,86.45
2018-02-22T06:09:08.932Z,77.05
2018-02-22T06:09:57.982Z,100.47
2018-02-22T06:10:47.055Z,91.30
2018-02-22T06:11:36.101Z,79.32
2018-02-22T06:12:25.154Z,81.45
2018-02-22T06:13:14.538Z,65.45
2018-02-22T06:14:03.585Z,48.78
2018-02-22T06:14:52.643Z,50.60
2018-02-22T06:15:41.703Z,83.85
2018-02-22T06:16:30.759Z,147.48
2018-02-22T06:17:19.831Z,100.62
2018-02-22T06:18:08.878Z,70.28
2018-02-22T06:18:58.961Z,72.05
2018-02-22T06:19:48.081Z,67.70
2018-02-22T06:20:37.122Z,65.90
2018-02-22T06:21:26.159Z,69.12
2018-02-22T06:22:15.259Z,86.47
2018-02-22T06:23:04.323Z,99.90
2018-02-22T06:23:53.379Z,89.85
2018-02-22T06:24:42.466Z,73.03
2018-02-22T06:25:31.511Z,79.53
2018-02-22T06:26:20.556Z,82.78
2018-02-22T06:27:09.596Z,78.68
2018-02-22T06:27:58.645Z,112.65
2018-02-22T06:28:47.691Z,90.40
2018-02-22T06:29:36.743Z,72.03
2018-02-22T06:30:25.949Z,87.80
2018-02-22T06:31:14.991Z,100.03
2018-02-22T06:32:04.978Z,247.65
2018-02-22T06:32:54.094Z,82.00
2018-02-22T06:33:43.152Z,92.40
2018-02-22T06:34:32.210Z,96.47
2018-02-22T06:35:21.256Z,73.03
2018-02-22T06:36:10.349Z,89.37
2018-02-22T06:36:59.416Z,88.80
2018-02-22T06:37:48.459Z,31.55
2018-02-22T06:38:37.500Z,38.30
2018-02-22T06:39:26.547Z,36.85
2018-02-22T06:40:15.595Z,39.28
2018-02-22T06:41:04.633Z,35.10
2018-02-22T06:41:54.011Z,35.53
2018-02-22T06:42:43.080Z,37.20
2018-02-22T06:43:32.119Z,36.50
2018-02-22T06:44:21.170Z,41.08
2018-02-22T06:45:10.232Z,37.30
2018-02-22T06:45:59.283Z,41.63
2018-02-22T06:46:48.324Z,54.40
2018-02-22T06:47:37.426Z,50.58
2018-02-22T06:48:26.496Z,43.72
2018-02-22T06:49:15.543Z,44.63
2018-02-22T06:50:04.580Z,45.33
2018-02-22T06:50:53.765Z,44.05
2018-02-22T06:51:42.810Z,44.03
2018-02-22T06:52:31.867Z,46.78
2018-02-22T06:53:20.913Z,47.62
2018-02-22T06:54:09.964Z,64.20
2018-02-22T06:54:59.024Z,55.22
2018-02-22T06:55:48.090Z,55.72
2018-02-22T06:56:37.192Z,51.05
2018-02-22T06:57:26.222Z,55.67
2018-02-22T06:58:15.301Z,60.60
2018-02-22T06:59:04.432Z,57.22
2018-02-22T06:59:53.511Z,56.63
2018-02-22T07:00:42.592Z,53.70
2018-02-22T07:01:31.644Z,38.00
2018-02-22T07:02:20.906Z,54.95
2018-02-22T07:03:09.951Z,65.80
2018-02-22T07:03:59.001Z,48.05
2018-02-22T07:04:48.094Z,56.78
2018-02-22T07:05:37.158Z,73.87
2018-02-22T07:06:26.244Z,60.17
2018-02-22T07:07:15.449Z,64.40
2018-02-22T07:08:04.512Z,65.97
2018-02-22T07:08:53.556Z,67.82
2018-02-22T07:09:42.621Z,69.87
2018-02-22T07:10:31.679Z,61.88
2018-02-22T07:11:20.721Z,71.72
2018-02-22T07:12:09.790Z,64.85
2018-02-22T07:12:58.872Z,69.25
2018-02-22T07:13:47.942Z,71.18
2018-02-22T07:14:36.997Z,75.95
2018-02-22T07:15:26.059Z,64.68
2018-02-22T07:16:15.101Z,50.53
2018-02-22T07:17:04.148Z,53.80
2018-02-22T07:17:53.190Z,45.70
2018-02-22T07:18:42.260Z,50.12
2018-02-22T07:19:31.310Z,46.22
2018-02-22T07:20:20.384Z,45.30
2018-02-22T07:21:09.431Z,36.42
2018-02-22T07:21:58.476Z,39.88
2018-02-22T07:22:47.527Z,64.78
2018-02-22T07:23:36.577Z,41.47
2018-02-22T07:24:27.475Z,50.65
2018-02-22T07:25:16.537Z,72.68
2018-02-22T07:26:05.643Z,65.50
2018-02-22T07:26:54.749Z,72.37
2018-02-22T07:27:43.795Z,79.70
2018-02-22T07:28:32.846Z,72.80
2018-02-22T07:29:21.960Z,71.43
2018-02-22T07:30:11.025Z,77.57
2018-02-22T07:31:00.089Z,80.90
2018-02-22T07:31:49.234Z,79.20
2018-02-22T07:32:38.275Z,77.72
2018-02-22T07:33:27.336Z,75.72
2018-02-22T07:34:16.436Z,67.22
2018-02-22T07:35:05.601Z,55.05
2018-02-22T07:35:54.654Z,53.80
2018-02-22T07:36:43.703Z,54.90
2018-02-22T07:37:32.807Z,52.22
2018-02-22T07:38:21.864Z,55.50
2018-02-22T07:39:10.919Z,50.90
2018-02-22T07:39:59.965Z,46.88
2018-02-22T07:40:49.171Z,47.70
2018-02-22T07:41:38.217Z,48.22
2018-02-22T07:42:30.346Z,51.15
2018-02-22T07:43:19.408Z,61.88
2018-02-22T07:44:08.473Z,166.07
2018-02-22T07:44:57.538Z,266.35
2018-02-22T07:45:46.592Z,309.05
2018-02-22T07:46:35.720Z,208.00
2018-02-22T07:47:24.781Z,231.60
2018-02-22T07:48:13.850Z,219.95
2018-02-22T07:49:02.921Z,160.75
2018-02-22T07:49:51.988Z,167.05
2018-02-22T07:50:41.038Z,662.15
2018-02-22T07:51:30.113Z,201.60
2018-02-22T07:52:19.380Z,312.58
2018-02-22T07:53:08.457Z,93.15
2018-02-22T07:53:57.494Z,37.00
2018-02-22T07:54:46.530Z,39.72
2018-02-22T07:55:35.570Z,70.05
2018-02-22T07:56:24.635Z,60.08
2018-02-22T07:57:13.784Z,37.10
2018-02-22T07:58:02.829Z,31.15
2018-02-22T07:58:51.858Z,23.00
2018-02-22T07:59:40.901Z,21.30
2018-02-22T08:00:29.944Z,36.55
2018-02-22T08:01:19.003Z,45.08
2018-02-22T08:02:08.060Z,27.33
2018-02-22T08:02:57.145Z,31.60
2018-02-22T08:03:46.201Z,30.90
2018-02-22T08:04:35.275Z,32.42
2018-02-22T08:05:24.315Z,48.33
2018-02-22T08:06:13.366Z,32.50
2018-02-22T08:07:02.461Z,41.85
2018-02-22T08:07:51.517Z,43.97
2018-02-22T08:08:40.740Z,41.42
2018-02-22T08:09:29.793Z,39.80
2018-02-22T08:10:18.857Z,47.05
2018-02-22T08:11:07.926Z,42.62
2018-02-22T08:11:57.008Z,37.08
2018-02-22T08:12:46.076Z,27.20
2018-02-22T08:13:35.127Z,32.63
2018-02-22T08:14:25.204Z,26.17
2018-02-22T08:15:14.261Z,25.42
2018-02-22T08:16:03.316Z,25.50
2018-02-22T08:16:52.380Z,37.85
2018-02-22T08:17:41.519Z,36.50
2018-02-22T08:18:30.581Z,31.73
2018-02-22T08:19:19.618Z,27.83
2018-02-22T08:20:08.644Z,17.90
2018-02-22T08:20:57.678Z,25.83
2018-02-22T08:21:46.743Z,23.77
2018-02-22T08:22:35.787Z,38.35
2018-02-22T08:23:24.922Z,29.98
2018-02-22T08:24:14.033Z,24.20
2018-02-22T08:25:03.089Z,31.67
2018-02-22T08:25:52.234Z,30.05
2018-02-22T08:26:41.375Z,29.87
2018-02-22T08:27:30.431Z,27.77
2018-02-22T08:28:19.487Z,28.67
2018-02-22T08:29:08.541Z,31.40
2018-02-22T08:29:57.596Z,16.12
2018-02-22T08:30:46.641Z,23.08
2018-02-22T08:31:35.679Z,19.83
2018-02-22T08:32:24.772Z,23.62
2018-02-22T08:33:13.829Z,24.52
2018-02-22T08:34:02.893Z,19.58
2018-02-22T08:34:51.961Z,21.75
2018-02-22T08:35:41.010Z,21.35
2018-02-22T08:36:30.085Z,23.50
2018-02-22T08:37:19.143Z,24.83
2018-02-22T08:38:08.275Z,33.55
2018-02-22T08:38:57.315Z,31.17
2018-02-22T08:39:46.370Z,26.90
2018-02-22T08:40:35.405Z,23.33
2018-02-22T08:41:24.454Z,24.33
2018-02-22T08:42:13.521Z,27.58
2018-02-22T08:43:02.567Z,10.65
2018-02-22T08:43:51.641Z,12.50
2018-02-22T08:44:40.730Z,13.45
2018-02-22T08:45:29.753Z,13.20
2018-02-22T08:46:18.796Z,29.00
2018-02-22T08:47:07.847Z,32.25
2018-02-22T08:47:56.900Z,27.27
2018-02-22T08:48:45.950Z,22.10
2018-02-22T08:49:35.218Z,20.92
2018-02-22T08:50:25.364Z,38.50
2018-02-22T08:51:14.430Z,23.83
2018-02-22T08:52:03.503Z,13.23
2018-02-22T08:52:52.569Z,9.30
2018-02-22T08:53:41.620Z,10.60
2018-02-22T08:54:30.774Z,17.05
2018-02-22T08:55:19.833Z,16.80
2018-02-22T08:56:08.887Z,15.15
2018-02-22T08:56:57.931Z,18.37
2018-02-22T08:57:46.967Z,14.43
2018-02-22T08:58:36.025Z,13.55
2018-02-22T08:59:25.183Z,14.57
2018-02-22T09:00:14.271Z,16.45
2018-02-22T09:01:03.318Z,13.88
2018-02-22T09:01:52.355Z,15.43
2018-02-22T09:02:41.401Z,20.65
2018-02-22T09:03:30.459Z,18.80
2018-02-22T09:04:19.495Z,19.23
2018-02-22T09:05:08.552Z,18.65
2018-02-22T09:05:57.852Z,21.50
2018-02-22T09:06:46.888Z,18.67
2018-02-22T09:07:35.931Z,13.30
2018-02-22T09:08:24.974Z,16.83
2018-02-22T09:09:14.058Z,16.30
2018-02-22T09:10:03.106Z,15.55
2018-02-22T09:10:52.219Z,17.33
2018-02-22T09:11:41.256Z,14.98
2018-02-22T09:12:30.302Z,14.13
2018-02-22T09:13:19.436Z,15.45
2018-02-22T09:14:08.600Z,15.98
2018-02-22T09:14:57.666Z,14.95
2018-02-22T09:15:46.735Z,20.33
2018-02-22T09:16:35.809Z,22.30
2018-02-22T09:17:24.848Z,26.05
2018-02-22T09:18:13.887Z,21.92
2018-02-22T09:19:12.910Z,21.02
2018-02-22T09:20:02.086Z,21.75
2018-02-22T09:20:51.215Z,20.65
2018-02-22T09:21:40.309Z,17.60
2018-02-22T09:22:29.411Z,17.90
2018-02-22T09:23:18.533Z,15.90
2018-02-22T09:24:07.643Z,16.45
2018-02-22T09:24:57.934Z,144.55
2018-02-22T09:25:47.003Z,58.70
2018-02-22T09:26:36.069Z,54.13
2018-02-22T09:27:25.168Z,53.13
2018-02-22T09:28:14.224Z,44.47
2018-02-22T09:29:03.272Z,37.35
2018-02-22T09:29:52.408Z,35.55
2018-02-22T09:31:55.893Z,30.10
2018-02-22T09:32:44.959Z,22.33
2018-02-22T09:33:34.004Z,20.02
2018-02-22T09:34:23.051Z,19.87
2018-02-22T09:35:12.178Z,21.23
2018-02-22T09:36:01.276Z,23.15
2018-02-22T09:36:50.338Z,23.10
2018-02-22T09:37:39.382Z,25.37
2018-02-22T09:38:28.442Z,23.48
2018-02-22T09:39:17.494Z,22.55
2018-02-22T09:40:06.548Z,22.60
2018-02-22T09:40:55.618Z,22.33
2018-02-22T09:41:44.682Z,24.10
2018-02-22T09:42:33.737Z,26.50
2018-02-22T09:43:22.783Z,21.80
2018-02-22T09:44:11.845Z,22.80
2018-02-22T09:45:01.155Z,23.38
2018-02-22T09:45:50.206Z,28.05
2018-02-22T09:46:39.571Z,22.83
2018-02-22T09:47:28.624Z,35.08
2018-02-22T09:48:17.687Z,32.92
2018-02-22T09:49:06.723Z,26.25
2018-02-22T09:49:56.048Z,19.52
2018-02-22T09:50:45.088Z,26.42
2018-02-22T09:51:34.140Z,32.95
2018-02-22T09:52:23.233Z,41.30
2018-02-22T09:53:12.278Z,40.45
2018-02-22T09:54:01.312Z,25.35
2018-02-22T09:54:50.361Z,23.02
2018-02-22T09:55:39.411Z,24.12
2018-02-22T09:56:28.603Z,20.92
2018-02-22T09:57:17.643Z,19.92
2018-02-22T09:58:06.689Z,18.65
2018-02-22T09:58:55.735Z,21.10
2018-02-22T09:59:44.768Z,21.65
2018-02-22T10:00:33.808Z,24.70
2018-02-22T10:01:22.856Z,55.28
2018-02-22T10:02:11.938Z,44.92
2018-02-22T10:03:00.975Z,41.25
2018-02-22T10:03:50.013Z,40.08
2018-02-22T10:04:39.075Z,30.15
2018-02-22T10:05:28.137Z,25.08
2018-02-22T10:06:17.227Z,27.92
2018-02-22T10:07:06.263Z,24.85
2018-02-22T10:07:55.339Z,19.15
2018-02-22T10:08:44.387Z,22.10
2018-02-22T10:09:33.432Z,24.20
2018-02-22T10:10:22.506Z,22.83
2018-02-22T10:11:11.559Z,22.23
2018-02-22T10:12:00.615Z,27.90
2018-02-22T10:12:49.734Z,24.37
2018-02-22T10:13:39.720Z,19.95
2018-02-22T10:14:28.803Z,20.67
2018-02-22T10:15:17.854Z,22.98
2018-02-22T10:16:06.902Z,20.52
2018-02-22T10:16:55.949Z,20.02
2018-02-22T10:17:44.996Z,18.77
2018-02-22T10:18:34.103Z,20.90
2018-02-22T10:19:23.192Z,23.00
2018-02-22T10:20:12.253Z,18.37
2018-02-22T10:21:01.318Z,16.20
2018-02-22T10:21:50.376Z,14.70
2018-02-22T10:22:39.448Z,15.77
2018-02-22T10:23:28.500Z,14.38
2018-02-22T10:24:17.572Z,17.35
2018-02-22T10:25:06.655Z,16.77
2018-02-22T10:25:55.715Z,16.02
2018-02-22T10:26:44.758Z,17.85
2018-02-22T10:27:33.802Z,40.78
2018-02-22T10:28:22.851Z,26.67
2018-02-22T10:29:11.895Z,28.70
2018-02-22T10:30:00.941Z,17.77
2018-02-22T10:30:50.109Z,26.60
2018-02-22T10:31:39.157Z,25.45
2018-02-22T10:32:28.201Z,34.08
2018-02-22T10:33:17.267Z,23.48
2018-02-22T10:34:06.335Z,18.30